Time;durP1;ratioP1;P1;durP2;ratioP2;P2;SDS_P1;SDS_P2;PMS_P1;PMS_P2;Temp;Humidity;BMP_temperature;BMP_pressure;BME280_temperature;BME280_humidity;BME280_pressure;Samples;Min_cycle;Max_cycle;Signal;HPM_P1;HPM_P2
2021/11/26 05:02:46;;;;;;;41.70;21.42;;;;;;;3.55;100.00;94407.75;5039839;23;20605;-71
2021/11/26 05:05:12;;;;;;;33.25;20.75;;;;;;;3.60;100.00;94413.25;4967811;28;20408;-71
2021/11/26 05:07:38;;;;;;;30.23;21.50;;;;;;;3.59;100.00;94415.97;4970668;28;20502;-71
2021/11/26 05:10:04;;;;;;;29.25;19.77;;;;;;;3.59;100.00;94406.53;4954579;28;20062;-71
2021/11/26 05:12:37;;;;;;;34.30;21.70;;;;;;;3.64;100.00;94403.53;4969540;28;20039;-72
2021/11/26 05:15:03;;;;;;;28.13;20.13;;;;;;;3.66;100.00;94397.31;4982265;28;20150;-71
2021/11/26 05:17:29;;;;;;;26.27;19.05;;;;;;;3.67;100.00;94395.56;4990414;28;20037;-71
2021/11/26 05:19:54;;;;;;;25.70;18.73;;;;;;;3.66;100.00;94387.06;4989362;28;20022;-71
2021/11/26 05:22:19;;;;;;;29.10;20.63;;;;;;;3.69;100.00;94376.56;4966322;28;20385;-71
2021/11/26 05:24:45;;;;;;;31.42;21.48;;;;;;;3.66;100.00;94369.16;4958211;28;20105;-71
2021/11/26 05:27:10;;;;;;;28.45;21.17;;;;;;;3.68;100.00;94362.16;4970398;28;20492;-71
2021/11/26 05:29:36;;;;;;;27.00;18.77;;;;;;;3.74;100.00;94360.78;4968655;28;20051;-71
2021/11/26 05:32:01;;;;;;;28.60;19.58;;;;;;;3.71;100.00;94354.19;4969643;28;20019;-71
2021/11/26 05:34:27;;;;;;;28.50;19.10;;;;;;;3.73;100.00;94333.53;4971252;28;20046;-71
2021/11/26 05:36:52;;;;;;;26.73;20.02;;;;;;;3.73;100.00;94338.66;4969787;28;20027;-72
2021/11/26 05:39:18;;;;;;;26.45;17.98;;;;;;;3.71;100.00;94330.34;4968684;28;20030;-72
2021/11/26 05:41:43;;;;;;;28.35;21.90;;;;;;;3.70;100.00;94326.16;4971782;28;20114;-71
2021/11/26 05:44:09;;;;;;;27.58;20.75;;;;;;;3.74;100.00;94327.50;4973191;28;20530;-71
2021/11/26 05:46:34;;;;;;;25.05;19.65;;;;;;;3.78;100.00;94328.00;4989614;28;20026;-71
2021/11/26 05:49:00;;;;;;;26.42;20.65;;;;;;;3.78;100.00;94338.25;4989197;28;20162;-72
2021/11/26 05:51:25;;;;;;;26.10;20.40;;;;;;;3.76;100.00;94337.59;4971709;28;20019;-71
2021/11/26 05:53:51;;;;;;;24.35;18.77;;;;;;;3.78;100.00;94335.69;4988572;28;20506;-72
2021/11/26 05:56:16;;;;;;;24.45;19.63;;;;;;;3.77;100.00;94334.06;4971179;28;20031;-72
2021/11/26 05:58:42;;;;;;;27.60;19.98;;;;;;;3.83;100.00;94331.72;4990060;28;20030;-71
2021/11/26 06:01:07;;;;;;;25.40;19.30;;;;;;;3.82;100.00;94322.44;4987671;28;20042;-71
2021/11/26 06:03:33;;;;;;;23.55;18.20;;;;;;;3.88;100.00;94313.38;4987460;28;20054;-71
2021/11/26 06:05:58;;;;;;;25.98;19.50;;;;;;;3.87;100.00;94301.53;4987146;28;20054;-71
2021/11/26 06:08:24;;;;;;;26.58;19.80;;;;;;;3.88;100.00;94295.47;4970382;28;20027;-71
2021/11/26 06:10:49;;;;;;;24.70;18.92;;;;;;;3.80;100.00;94277.44;4987798;28;20079;-71
2021/11/26 06:13:15;;;;;;;23.38;19.20;;;;;;;3.87;100.00;94286.97;4987583;28;20022;-71
2021/11/26 06:15:40;;;;;;;25.27;19.17;;;;;;;3.82;100.00;94285.81;4987612;28;20038;-71
2021/11/26 06:18:05;;;;;;;24.65;18.23;;;;;;;3.83;100.00;94261.78;4986586;28;20023;-71
2021/11/26 06:20:31;;;;;;;24.65;18.48;;;;;;;3.87;100.00;94269.03;4985938;28;20039;-72
2021/11/26 06:22:56;;;;;;;22.88;20.05;;;;;;;3.87;100.00;94263.09;4984590;28;20567;-71
2021/11/26 06:25:23;;;;;;;22.20;19.05;;;;;;;3.88;100.00;94268.09;4985250;28;20050;-71
2021/11/26 06:27:50;;;;;;;24.90;20.13;;;;;;;3.84;100.00;94278.78;4971366;28;20034;-71
2021/11/26 06:30:17;;;;;;;22.27;17.98;;;;;;;3.85;100.00;94281.19;4986245;28;20026;-71
2021/11/26 06:32:43;;;;;;;24.05;19.58;;;;;;;3.81;100.00;94279.88;4972467;28;20492;-74
2021/11/26 06:35:10;;;;;;;22.95;19.08;;;;;;;3.82;100.00;94288.38;4986011;28;20027;-71
2021/11/26 06:37:36;;;;;;;23.30;18.20;;;;;;;3.88;99.95;94285.22;4971072;28;20038;-71
2021/11/26 06:40:03;;;;;;;21.42;16.77;;;;;;;3.85;99.56;94278.63;4988242;28;20022;-71
2021/11/26 06:42:28;;;;;;;16.65;14.68;;;;;;;3.79;99.09;94275.84;4988334;28;20232;-71
2021/11/26 06:44:54;;;;;;;18.40;15.75;;;;;;;3.84;98.68;94287.25;4988345;28;20030;-71
2021/11/26 06:47:20;;;;;;;17.83;14.95;;;;;;;3.80;98.39;94285.13;4966517;28;20487;-71
2021/11/26 06:49:47;;;;;;;14.80;13.07;;;;;;;3.84;97.94;94284.69;4969689;28;20019;-71
2021/11/26 06:52:13;;;;;;;14.32;12.88;;;;;;;3.88;97.18;94286.03;4968246;28;20058;-71
2021/11/26 06:54:38;;;;;;;17.60;14.00;;;;;;;3.91;97.70;94279.78;4973984;28;20543;-71
2021/11/26 06:57:04;;;;;;;16.63;14.70;;;;;;;3.79;97.13;94281.75;4986302;28;20034;-71
2021/11/26 06:59:30;;;;;;;15.00;13.07;;;;;;;3.84;97.24;94273.66;4987014;28;20506;-71
2021/11/26 07:01:55;;;;;;;18.50;14.18;;;;;;;3.83;97.14;94267.72;4986706;28;20137;-71
2021/11/26 07:04:22;;;;;;;15.25;10.25;;;;;;;3.83;97.01;94277.97;4986221;28;20031;-71
2021/11/26 07:06:48;;;;;;;14.27;12.02;;;;;;;3.81;97.00;94271.38;4987812;28;20112;-71
2021/11/26 07:09:13;;;;;;;13.20;11.88;;;;;;;3.82;96.98;94265.31;4986542;28;20483;-71
2021/11/26 07:11:39;;;;;;;14.15;11.23;;;;;;;3.80;97.24;94259.53;4988396;28;20034;-71
2021/11/26 07:14:04;;;;;;;16.42;13.25;;;;;;;3.78;97.32;94241.75;4985729;28;20033;-71
2021/11/26 07:16:30;;;;;;;17.38;13.85;;;;;;;3.74;97.42;94237.88;4986939;28;20030;-72
2021/11/26 07:18:55;;;;;;;14.32;12.82;;;;;;;3.76;98.07;94237.75;4986241;28;20023;-71
2021/11/26 07:21:21;;;;;;;15.55;13.68;;;;;;;3.77;97.80;94237.59;4986838;28;20507;-71
2021/11/26 07:23:46;;;;;;;15.05;12.57;;;;;;;3.70;97.91;94232.25;4986510;28;20034;-71
2021/11/26 07:26:12;;;;;;;15.20;13.30;;;;;;;3.78;98.18;94220.47;4987400;28;20058;-72
2021/11/26 07:28:37;;;;;;;14.15;12.48;;;;;;;3.73;97.61;94215.78;4970783;28;20026;-71
2021/11/26 07:31:03;;;;;;;14.90;11.95;;;;;;;3.76;97.48;94220.59;4987086;28;20034;-71
2021/11/26 07:33:28;;;;;;;12.98;10.73;;;;;;;3.77;96.96;94206.88;4986767;28;20069;-71
2021/11/26 07:35:54;;;;;;;12.02;10.90;;;;;;;3.83;96.81;94183.22;4985519;28;20022;-71
2021/11/26 07:38:19;;;;;;;11.85;10.65;;;;;;;3.92;96.96;94171.25;4972584;28;20080;-71
2021/11/26 07:40:45;;;;;;;11.95;10.30;;;;;;;3.92;96.69;94171.25;4991223;28;20422;-71
2021/11/26 07:43:10;;;;;;;12.38;10.70;;;;;;;3.88;96.29;94170.78;4990822;28;20033;-71
2021/11/26 07:45:36;;;;;;;9.52;8.73;;;;;;;3.91;95.62;94162.81;4991260;28;20030;-71
2021/11/26 07:48:01;;;;;;;10.18;9.27;;;;;;;3.97;95.45;94181.88;4989156;28;20035;-71
2021/11/26 07:50:27;;;;;;;10.43;9.43;;;;;;;3.90;95.50;94188.56;4990489;28;20027;-71
2021/11/26 07:52:52;;;;;;;9.63;8.63;;;;;;;4.04;96.09;94167.53;4988766;28;20039;-71
2021/11/26 07:55:18;;;;;;;10.55;9.50;;;;;;;3.94;95.52;94141.22;4990150;28;20033;-72
2021/11/26 07:57:44;;;;;;;9.00;8.10;;;;;;;3.85;95.50;94145.47;4963249;28;20027;-73
2021/11/26 08:00:11;;;;;;;9.75;8.30;;;;;;;3.94;95.24;94144.56;4970500;28;20038;-71
2021/11/26 08:02:36;;;;;;;10.85;9.75;;;;;;;3.93;95.43;94137.84;4954161;28;20086;-72
2021/11/26 08:05:02;;;;;;;9.38;8.48;;;;;;;4.00;95.73;94143.97;4970705;28;20027;-72
2021/11/26 08:07:28;;;;;;;10.00;9.10;;;;;;;3.88;95.90;94152.88;4979144;28;20026;-71
2021/11/26 08:09:53;;;;;;;11.35;8.95;;;;;;;4.03;95.89;94146.22;4988595;28;20022;-71
2021/11/26 08:12:19;;;;;;;9.85;8.95;;;;;;;4.02;95.74;94128.44;4990043;28;20468;-72
2021/11/26 08:14:47;;;;;;;9.45;8.52;;;;;;;3.86;96.05;94123.22;4988840;28;20030;-72
2021/11/26 08:17:12;;;;;;;9.40;8.55;;;;;;;3.91;95.83;94121.84;4990602;28;20023;-71
2021/11/26 08:19:37;;;;;;;9.15;8.35;;;;;;;3.93;95.59;94122.47;4989393;28;20097;-71
2021/11/26 08:22:03;;;;;;;9.73;8.77;;;;;;;3.97;95.69;94117.84;4988675;28;20030;-72
2021/11/26 08:24:28;;;;;;;9.32;8.35;;;;;;;3.99;95.00;94111.63;4989670;28;20109;-71
2021/11/26 08:26:54;;;;;;;8.60;7.85;;;;;;;4.07;94.69;94111.69;4988257;28;20030;-72
2021/11/26 08:29:19;;;;;;;10.13;8.20;;;;;;;4.03;94.46;94095.00;4989809;28;20076;-71
2021/11/26 08:31:45;;;;;;;9.02;8.18;;;;;;;4.08;94.30;94097.09;4988446;28;20030;-71
2021/11/26 08:34:11;;;;;;;11.45;8.50;;;;;;;4.02;94.15;94092.56;4973396;28;20431;-71
2021/11/26 08:36:36;;;;;;;8.63;7.80;;;;;;;3.99;93.93;94078.31;4988159;28;20038;-71
2021/11/26 08:39:04;;;;;;;8.52;7.72;;;;;;;3.98;93.85;94101.53;4973059;28;20015;-71
2021/11/26 08:41:29;;;;;;;9.45;8.48;;;;;;;4.10;94.67;94105.44;4989621;28;20026;-71
2021/11/26 08:43:55;;;;;;;9.65;8.75;;;;;;;4.11;94.48;94107.84;4988050;28;20112;-71
2021/11/26 08:46:21;;;;;;;10.55;9.65;;;;;;;4.04;94.96;94100.94;4989473;28;20061;-71
2021/11/26 08:48:47;;;;;;;11.38;10.38;;;;;;;3.68;95.63;94084.88;4987893;28;20040;-72
2021/11/26 08:51:12;;;;;;;10.38;9.38;;;;;;;3.93;95.47;94099.44;4969456;28;20033;-71
2021/11/26 08:53:43;;;;;;;11.30;9.68;;;;;;;3.72;95.31;94079.28;4968606;28;20023;-71
2021/11/26 08:56:09;;;;;;;14.20;9.85;;;;;;;3.85;95.75;94078.09;4969767;28;20026;-71
2021/11/26 08:58:36;;;;;;;10.43;9.48;;;;;;;3.79;95.27;94051.31;4969318;28;20093;-71
2021/11/26 09:01:03;;;;;;;9.60;8.57;;;;;;;3.80;95.08;94059.81;4968557;28;20047;-72
2021/11/26 09:03:28;;;;;;;9.25;8.27;;;;;;;3.95;94.97;94055.75;4973879;28;20037;-71
2021/11/26 09:05:53;;;;;;;11.27;10.20;;;;;;;4.00;95.15;94066.31;4986745;28;20030;-71
2021/11/26 09:08:19;;;;;;;10.40;7.65;;;;;;;3.87;94.68;94059.06;4987375;28;20491;-71
2021/11/26 09:10:46;;;;;;;9.00;8.20;;;;;;;3.98;94.51;94048.53;4986627;28;20054;-71
2021/11/26 09:13:13;;;;;;;10.25;9.25;;;;;;;3.99;94.48;94016.06;4987166;28;20120;-71
2021/11/26 09:15:39;;;;;;;11.43;8.55;;;;;;;3.84;93.92;93935.66;4970886;28;20543;-71
2021/11/26 09:18:09;;;;;;;9.48;8.68;;;;;;;3.94;94.48;93913.28;4987836;28;20037;-71
2021/11/26 09:20:36;;;;;;;12.80;8.30;;;;;;;3.89;94.43;93933.44;4987378;28;20037;-71
2021/11/26 09:23:04;;;;;;;9.15;7.03;;;;;;;3.95;94.05;93948.97;4986455;28;20096;-71
2021/11/26 09:25:30;;;;;;;7.20;5.82;;;;;;;4.02;93.92;93929.47;4987151;28;20058;-70
2021/11/26 09:27:55;;;;;;;8.23;7.43;;;;;;;4.11;93.63;93920.06;4987858;28;20422;-71
2021/11/26 09:30:22;;;;;;;7.10;6.40;;;;;;;3.98;93.71;93899.22;4970656;28;20090;-71
2021/11/26 09:32:47;;;;;;;7.13;6.50;;;;;;;4.01;94.28;93888.66;4986263;28;20026;-71
2021/11/26 09:35:14;;;;;;;8.07;7.30;;;;;;;4.14;93.71;93887.22;4970304;28;20117;-71
2021/11/26 09:37:40;;;;;;;7.72;6.47;;;;;;;4.03;93.84;93856.00;4971244;28;20570;-71
2021/11/26 09:40:08;;;;;;;7.78;7.07;;;;;;;3.89;94.11;93862.53;4970026;28;20050;-71
2021/11/26 09:42:34;;;;;;;7.55;6.85;;;;;;;4.00;94.03;93861.44;4987025;28;20433;-71
2021/11/26 09:45:00;;;;;;;7.22;6.43;;;;;;;3.94;93.85;93855.19;4986511;28;20037;-71
2021/11/26 09:47:27;;;;;;;7.57;6.82;;;;;;;4.03;93.88;93835.50;4986035;28;20084;-71
2021/11/26 09:49:56;;;;;;;7.35;6.55;;;;;;;4.03;92.86;93822.72;4987471;28;20439;-70
2021/11/26 09:52:21;;;;;;;9.27;7.80;;;;;;;4.11;92.62;93836.31;4970138;28;20034;-71
2021/11/26 09:54:47;;;;;;;7.97;6.95;;;;;;;4.36;92.50;93832.00;4986701;28;20158;-71
2021/11/26 09:57:15;;;;;;;7.40;6.75;;;;;;;4.00;92.63;93833.28;4986031;28;20105;-71
2021/11/26 09:59:42;;;;;;;9.55;8.45;;;;;;;4.03;92.41;93825.25;4986446;28;20034;-72
2021/11/26 10:02:14;;;;;;;10.43;8.05;;;;;;;4.11;92.32;93840.66;4969307;28;20038;-72
2021/11/26 10:04:39;;;;;;;8.25;7.43;;;;;;;4.18;92.44;93819.34;4986368;28;20150;-71
2021/11/26 10:07:05;;;;;;;8.18;7.53;;;;;;;4.34;91.92;93822.84;4987183;28;20122;-71
2021/11/26 10:09:33;;;;;;;8.38;7.40;;;;;;;4.59;91.43;93804.72;4955108;28;20031;-71
2021/11/26 10:12:11;;;;;;;9.15;8.25;;;;;;;4.38;91.10;93809.56;4987873;28;20414;-71
2021/11/26 10:14:41;;;;;;;9.13;8.23;;;;;;;4.72;90.99;93792.19;4969677;28;20558;-72
2021/11/26 10:17:16;;;;;;;9.18;7.63;;;;;;;4.78;90.97;93773.59;4986620;28;20454;-71
2021/11/26 10:19:57;;;;;;;8.63;7.72;;;;;;;4.79;90.60;93764.94;4985734;28;20026;-71
2021/11/26 10:22:29;;;;;;;8.80;7.63;;;;;;;4.63;90.59;93785.50;4986867;28;20121;-71
2021/11/26 10:25:19;;;;;;;10.90;8.65;;;;;;;4.67;91.05;93771.38;4986054;28;20041;-71
2021/11/26 10:27:56;;;;;;;9.57;8.50;;;;;;;4.72;90.66;93770.88;4964878;28;20565;-71
2021/11/26 10:30:31;;;;;;;8.82;7.97;;;;;;;4.52;90.99;93787.59;4969632;28;20034;-71
2021/11/26 10:33:01;;;;;;;14.43;7.50;;;;;;;4.71;90.73;93782.13;4969591;28;20530;-71
2021/11/26 10:35:36;;;;;;;9.90;8.10;;;;;;;4.72;90.10;93765.75;4985823;28;20029;-71
2021/11/26 10:38:04;;;;;;;7.47;6.78;;;;;;;4.72;90.46;93765.75;4987179;28;20406;-71
2021/11/26 10:40:33;;;;;;;8.82;8.02;;;;;;;4.96;90.05;93759.75;4986762;28;20041;-71
2021/11/26 10:43:01;;;;;;;8.80;7.68;;;;;;;5.02;89.44;93753.94;4970187;28;20026;-71
2021/11/26 10:46:02;;;;;;;8.50;7.32;;;;;;;4.99;89.65;93765.34;4985037;28;20208;-71
2021/11/26 10:51:33;;;;;;;7.78;7.07;;;;;;;4.95;89.75;93753.00;4986379;28;20066;-72
2021/11/26 11:00:17;;;;;;;11.93;10.13;;;;;;;4.30;92.00;93767.78;4973821;28;20140;-71
2021/11/26 11:02:46;;;;;;;10.90;9.85;;;;;;;4.34;92.79;93769.84;4983507;28;20073;-74
2021/11/26 11:05:25;;;;;;;11.70;10.13;;;;;;;4.40;92.93;93758.94;4986148;28;21008;-71
2021/11/26 11:07:50;;;;;;;10.98;8.85;;;;;;;4.36;92.74;93714.13;4986549;28;20034;-72
2021/11/26 11:10:32;;;;;;;10.77;9.80;;;;;;;4.40;92.76;93753.03;4986397;28;20487;-71
2021/11/26 11:13:05;;;;;;;11.50;10.40;;;;;;;4.16;93.94;93776.91;4971312;28;20034;-71
2021/11/26 11:15:31;;;;;;;11.68;10.00;;;;;;;4.09;94.13;93781.09;4990189;28;20181;-71
2021/11/26 11:17:56;;;;;;;11.13;10.02;;;;;;;4.13;94.37;93784.94;4989376;28;20101;-71
2021/11/26 11:20:24;;;;;;;13.15;11.95;;;;;;;3.83;94.87;93777.88;4988919;28;20045;-72
2021/11/26 11:22:50;;;;;;;13.38;12.13;;;;;;;3.90;95.82;93761.72;4989331;28;20384;-71
2021/11/26 11:25:21;;;;;;;12.10;11.00;;;;;;;3.96;96.28;93750.84;4988743;28;20431;-71
2021/11/26 11:27:46;;;;;;;13.10;11.90;;;;;;;3.93;95.73;93751.16;4989045;28;20057;-71
2021/11/26 11:30:12;;;;;;;13.85;12.40;;;;;;;4.00;96.05;93743.63;4989559;28;20695;-72
2021/11/26 11:32:38;;;;;;;12.23;11.13;;;;;;;3.88;95.62;93750.03;4988526;28;20023;-72
2021/11/26 11:35:07;;;;;;;11.43;10.38;;;;;;;4.03;96.30;93759.47;4989133;28;20042;-71
2021/11/26 11:37:32;;;;;;;11.70;10.50;;;;;;;4.03;95.78;93738.19;4972453;28;20034;-72
2021/11/26 11:40:02;;;;;;;12.60;11.35;;;;;;;4.14;95.50;93737.88;4989005;28;20515;-71
2021/11/26 11:42:34;;;;;;;12.05;10.82;;;;;;;4.10;95.55;93716.91;4972750;28;20161;-71
2021/11/26 11:45:13;;;;;;;10.70;9.70;;;;;;;4.32;94.86;93724.84;4988716;28;20542;-71
2021/11/26 11:47:47;;;;;;;13.27;12.07;;;;;;;4.49;93.93;93729.78;4989106;28;20030;-71
2021/11/26 11:50:22;;;;;;;11.98;10.82;;;;;;;4.43;94.04;93712.47;4988503;28;20023;-71
2021/11/26 11:52:52;;;;;;;11.65;10.25;;;;;;;4.58;94.18;93704.94;4988802;28;20061;-73
2021/11/26 11:55:22;;;;;;;14.57;13.27;;;;;;;4.54;94.33;93699.31;4988502;28;20046;-73
2021/11/26 11:57:48;;;;;;;14.07;11.25;;;;;;;4.24;95.24;93700.03;4988468;28;20018;-71
2021/11/26 12:00:17;;;;;;;12.75;11.00;;;;;;;4.13;95.84;93701.22;4989982;28;20033;-72
2021/11/26 12:02:44;;;;;;;12.02;10.60;;;;;;;4.52;95.52;93718.41;4987678;28;20061;-71
2021/11/26 12:05:24;;;;;;;11.65;10.55;;;;;;;4.51;94.66;93719.34;4988805;28;20030;-72
2021/11/26 12:07:49;;;;;;;11.32;10.02;;;;;;;4.30;95.04;93704.53;4971410;28;20475;-71
2021/11/26 12:10:16;;;;;;;10.52;9.45;;;;;;;4.47;95.15;93690.69;4972280;28;20125;-71
2021/11/26 12:12:55;;;;;;;11.35;10.18;;;;;;;4.69;94.04;93666.09;4988590;28;20110;-71
2021/11/26 12:15:33;;;;;;;9.80;8.90;;;;;;;5.05;92.46;93681.78;4988210;28;20064;-71
2021/11/26 12:18:04;;;;;;;10.65;9.50;;;;;;;5.29;91.03;93685.03;4972237;28;20041;-71
2021/11/26 12:20:31;;;;;;;10.57;9.32;;;;;;;5.38;90.11;93667.78;4987114;28;20523;-71
2021/11/26 12:23:05;;;;;;;11.27;9.82;;;;;;;5.52;89.72;93649.06;4989496;28;20369;-71
2021/11/26 12:28:18;;;;;;;9.15;8.25;;;;;;;5.35;90.79;93636.53;4988024;28;20031;-71
2021/11/26 12:30:44;;;;;;;8.05;7.38;;;;;;;5.75;88.98;93652.41;4973216;28;20030;-71
2021/11/26 12:33:24;;;;;;;8.27;7.57;;;;;;;5.59;89.51;93651.72;4971165;28;20031;-71
2021/11/26 12:36:04;;;;;;;;;;;;;;;5.41;89.82;93651.25;4988453;28;20109;-71
2021/11/26 12:38:41;;;;;;;9.45;8.50;;;;;;;5.35;91.09;93624.50;4989284;28;19918;-71
2021/11/26 12:41:08;;;;;;;8.77;7.95;;;;;;;5.28;91.33;93610.75;4988884;28;20034;-71
2021/11/26 12:43:48;;;;;;;7.55;6.70;;;;;;;5.44;91.09;93617.53;4988218;28;20058;-71
2021/11/26 12:46:20;;;;;;;;;;;;;;;5.63;89.60;93642.72;4989032;28;20084;-71
2021/11/26 12:49:06;;;;;;;8.60;7.82;;;;;;;6.16;87.88;93654.63;4989173;28;19920;-71
2021/11/26 12:51:34;;;;;;;18.27;12.38;;;;;;;6.06;87.41;93648.94;4972675;28;20414;-71
2021/11/26 12:54:03;;;;;;;13.02;10.20;;;;;;;6.08;87.78;93658.06;4987346;28;20034;-71
2021/11/26 12:56:29;;;;;;;7.60;6.90;;;;;;;5.75;89.15;93664.44;4989259;28;20034;-71
2021/11/26 12:58:54;;;;;;;8.13;7.43;;;;;;;5.88;89.23;93677.53;4988312;28;20053;-71
2021/11/26 13:01:20;;;;;;;9.10;8.30;;;;;;;5.65;89.81;93689.59;4987760;28;20133;-71
2021/11/26 13:03:47;;;;;;;7.63;6.95;;;;;;;5.74;90.54;93673.94;4987284;28;20400;-71
2021/11/26 13:06:13;;;;;;;8.48;7.82;;;;;;;5.89;89.58;93670.63;4987174;28;20054;-72
2021/11/26 13:08:40;;;;;;;8.45;7.72;;;;;;;6.45;88.04;93667.50;4986656;28;20035;-71
2021/11/26 13:11:07;;;;;;;8.40;7.63;;;;;;;6.14;87.80;93674.56;4988472;28;20084;-71
2021/11/26 13:13:42;;;;;;;8.15;7.45;;;;;;;6.25;87.29;93672.38;4987258;28;20050;-71
2021/11/26 13:16:13;;;;;;;8.20;7.50;;;;;;;6.47;87.37;93675.81;4986968;28;20542;-71
2021/11/26 13:18:39;;;;;;;8.63;7.85;;;;;;;6.15;87.62;93671.81;4988813;28;20034;-71
2021/11/26 13:21:06;;;;;;;8.50;7.75;;;;;;;6.16;87.17;93658.00;4987794;28;20025;-72
2021/11/26 13:23:34;;;;;;;7.70;7.00;;;;;;;6.57;87.27;93645.50;4988526;28;20030;-72
2021/11/26 13:26:03;;;;;;;8.48;7.57;;;;;;;6.74;86.32;93633.25;4986554;28;20495;-71
2021/11/26 13:28:35;;;;;;;8.23;7.43;;;;;;;6.41;86.34;93619.16;4986813;28;20030;-71
2021/11/26 13:31:04;;;;;;;8.95;6.70;;;;;;;6.42;87.04;93620.78;4988314;28;20061;-72
2021/11/26 13:33:32;;;;;;;10.18;7.18;;;;;;;6.39;85.81;93614.19;4986287;28;20527;-71
2021/11/26 13:36:10;;;;;;;8.32;7.63;;;;;;;6.33;86.96;93609.78;4987777;28;20054;-71
2021/11/26 13:38:43;;;;;;;8.13;7.43;;;;;;;6.36;87.40;93606.84;4987739;28;20035;-72
2021/11/26 13:41:22;;;;;;;7.63;6.93;;;;;;;6.25;87.19;93615.03;4986778;28;20037;-71
2021/11/26 13:43:52;;;;;;;8.90;7.65;;;;;;;6.01;87.73;93616.06;4988163;28;20026;-72
2021/11/26 13:46:30;;;;;;;8.48;7.68;;;;;;;6.19;87.95;93611.41;4986402;28;20066;-71
2021/11/26 13:48:59;;;;;;;8.80;8.10;;;;;;;5.97;88.53;93614.84;4986946;28;20506;-71
2021/11/26 13:51:28;;;;;;;9.15;8.35;;;;;;;5.86;89.39;93617.03;4985901;28;20065;-71
2021/11/26 13:54:01;;;;;;;8.63;7.82;;;;;;;5.70;89.94;93612.81;4986426;28;20035;-71
2021/11/26 13:56:29;;;;;;;9.73;8.75;;;;;;;5.54;90.83;93618.09;4970139;28;20046;-71
2021/11/26 13:59:03;;;;;;;8.98;8.07;;;;;;;5.38;91.42;93610.53;4986961;28;20041;-72
2021/11/26 14:01:42;;;;;;;10.35;8.35;;;;;;;5.38;91.79;93605.38;4988605;28;20046;-71
2021/11/26 14:04:15;;;;;;;8.20;7.40;;;;;;;5.20;92.89;93585.16;4984473;28;20506;-71
2021/11/26 14:06:40;;;;;;;8.52;7.82;;;;;;;5.06;93.40;93567.94;4985753;28;20035;-71
2021/11/26 14:09:11;;;;;;;9.40;8.43;;;;;;;4.96;94.26;93557.91;4984448;28;20181;-71
2021/11/26 14:11:41;;;;;;;10.52;8.45;;;;;;;4.83;94.66;93550.00;4985359;28;20113;-71
2021/11/26 14:14:13;;;;;;;9.20;8.30;;;;;;;4.73;95.52;93537.41;4985073;28;20525;-71
2021/11/26 14:16:55;;;;;;;9.60;8.60;;;;;;;4.67;96.03;93519.34;4984432;28;20121;-71
2021/11/26 14:19:29;;;;;;;10.27;9.27;;;;;;;4.63;96.43;93541.16;4985340;28;20034;-72
2021/11/26 14:21:56;;;;;;;9.55;8.75;;;;;;;4.65;96.43;93552.84;4985926;28;20034;-71
2021/11/26 14:24:45;;;;;;;10.35;8.65;;;;;;;4.59;96.99;93553.50;4986762;28;20030;-72
2021/11/26 14:27:12;;;;;;;10.48;9.27;;;;;;;4.59;97.15;93548.38;4985929;28;20042;-71
2021/11/26 14:29:51;;;;;;;9.75;8.85;;;;;;;4.60;97.64;93534.59;4984955;28;20528;-72
2021/11/26 14:32:18;;;;;;;10.48;9.30;;;;;;;4.59;97.79;93527.88;4985538;28;20434;-73
2021/11/26 14:34:44;;;;;;;10.30;9.27;;;;;;;4.59;97.75;93515.06;4985017;28;20515;-79
2021/11/26 14:37:10;;;;;;;9.57;8.68;;;;;;;4.66;97.55;93520.28;5002967;28;20569;-81
2021/11/26 14:39:37;;;;;;;11.18;10.18;;;;;;;4.68;97.71;93526.88;4996641;28;20031;-82
2021/11/26 14:42:08;;;;;;;11.80;10.63;;;;;;;4.57;97.85;93519.56;5003109;28;20085;-78
2021/11/26 14:44:48;;;;;;;12.77;10.15;;;;;;;4.51;98.30;93542.50;4986755;28;20121;-80
2021/11/26 14:47:25;;;;;;;11.88;10.68;;;;;;;4.44;98.74;93562.88;5002399;28;20142;-81
2021/11/26 14:49:51;;;;;;;14.48;11.98;;;;;;;4.39;99.11;93547.22;4991173;28;20116;-77
2021/11/26 14:52:19;;;;;;;11.55;10.40;;;;;;;4.54;99.14;93534.47;4988373;28;20006;-81
2021/11/26 14:54:47;;;;;;;12.90;11.60;;;;;;;4.40;99.08;93545.47;5005556;28;20113;-80
2021/11/26 14:57:14;;;;;;;12.55;10.85;;;;;;;4.47;99.48;93548.94;5007436;28;20102;-82
2021/11/26 14:59:46;;;;;;;11.52;10.50;;;;;;;4.40;99.63;93538.56;5001359;28;20041;-79
2021/11/26 15:02:12;;;;;;;11.45;10.35;;;;;;;4.40;99.37;93530.88;5004659;28;20047;-79
2021/11/26 15:04:37;;;;;;;11.93;10.82;;;;;;;4.47;99.43;93544.63;4993394;28;20034;-80
2021/11/26 15:07:03;;;;;;;12.27;11.18;;;;;;;4.45;99.54;93535.50;5010942;28;20014;-80
2021/11/26 15:09:28;;;;;;;11.68;10.55;;;;;;;4.46;99.61;93503.78;5006770;28;20266;-79
2021/11/26 15:11:54;;;;;;;11.75;10.65;;;;;;;4.49;99.72;93486.31;5006312;28;20412;-79
2021/11/26 15:14:19;;;;;;;12.35;11.13;;;;;;;4.56;99.27;93479.50;5005504;28;20471;-79
2021/11/26 15:16:46;;;;;;;14.65;12.90;;;;;;;4.54;99.56;93478.91;5010520;28;20345;-79
2021/11/26 15:19:13;;;;;;;13.38;11.98;;;;;;;4.62;98.84;93494.19;5005474;28;20542;-81
2021/11/26 15:21:39;;;;;;;15.93;14.23;;;;;;;4.35;99.60;93469.09;5012979;28;20573;-78
2021/11/26 15:24:05;;;;;;;16.48;14.77;;;;;;;4.48;99.50;93436.00;5007947;28;20022;-78
2021/11/26 15:26:31;;;;;;;16.00;14.43;;;;;;;4.39;100.00;93464.44;5009913;28;20036;-78
2021/11/26 15:28:56;;;;;;;16.38;14.77;;;;;;;4.46;100.00;93462.78;4993264;28;20030;-79
2021/11/26 15:31:23;;;;;;;13.70;12.25;;;;;;;4.77;99.26;93466.88;4986607;28;20011;-84
2021/11/26 15:33:49;;;;;;;16.55;14.23;;;;;;;4.48;99.42;93473.66;4992283;28;20041;-77
2021/11/26 15:36:15;;;;;;;18.52;13.07;;;;;;;4.71;98.96;93466.75;4982632;28;20494;-77
2021/11/26 15:38:40;;;;;;;17.13;15.27;;;;;;;4.38;99.87;93471.31;4996438;28;20034;-77
2021/11/26 15:41:06;;;;;;;16.83;14.25;;;;;;;4.27;100.00;93460.69;5006131;28;20034;-81
2021/11/26 15:43:32;;;;;;;16.58;14.75;;;;;;;4.36;100.00;93450.19;5008758;28;20430;-77
2021/11/26 15:45:58;;;;;;;17.55;15.00;;;;;;;4.33;100.00;93434.38;5008873;28;20026;-78
2021/11/26 15:48:23;;;;;;;17.45;13.57;;;;;;;4.57;100.00;93442.66;4994489;28;20499;-79
2021/11/26 15:50:53;;;;;;;16.02;14.00;;;;;;;4.57;100.00;93427.28;5005117;28;20113;-82
2021/11/26 15:53:19;;;;;;;;;;;;;;;4.54;100.00;93442.22;5013798;28;20030;-81
2021/11/26 15:55:45;;;;;;;23.48;16.20;;;;;;;4.28;100.00;93452.81;4985880;28;20004;-81
2021/11/26 15:58:10;;;;;;;24.13;17.63;;;;;;;4.08;100.00;93477.25;5000203;28;20025;-79
2021/11/26 16:00:36;;;;;;;21.77;17.75;;;;;;;3.96;100.00;93465.78;4996602;28;20022;-78
2021/11/26 16:03:01;;;;;;;21.65;17.95;;;;;;;3.98;100.00;93477.47;4991758;28;20033;-79
2021/11/26 16:05:27;;;;;;;17.75;15.70;;;;;;;4.08;100.00;93487.50;4989819;28;20058;-79
2021/11/26 16:07:52;;;;;;;18.92;16.50;;;;;;;4.07;100.00;93496.97;4989643;28;20037;-79
2021/11/26 16:10:18;;;;;;;19.75;15.23;;;;;;;3.99;100.00;93509.00;4988695;28;20098;-80
2021/11/26 16:12:43;;;;;;;15.80;13.70;;;;;;;4.03;100.00;93512.81;4990147;28;20026;-80
2021/11/26 16:15:09;;;;;;;15.48;13.88;;;;;;;4.01;100.00;93512.19;4988263;28;20574;-80
2021/11/26 16:17:35;;;;;;;18.83;15.48;;;;;;;3.93;100.00;93505.34;4988030;28;20085;-80
2021/11/26 16:20:03;;;;;;;19.60;16.92;;;;;;;3.98;100.00;93482.56;5003711;28;20106;-81
2021/11/26 16:22:28;;;;;;;24.75;20.38;;;;;;;3.83;100.00;93474.00;5005276;28;20038;-81
2021/11/26 16:24:54;;;;;;;20.77;17.90;;;;;;;3.81;100.00;93470.03;4979293;28;20512;-80
2021/11/26 16:27:19;;;;;;;19.63;17.33;;;;;;;3.82;100.00;93476.75;4989622;28;20076;-79
2021/11/26 16:29:46;;;;;;;22.88;19.60;;;;;;;3.82;100.00;93479.31;4990426;28;20030;-79
2021/11/26 16:32:29;;;;;;;21.42;18.02;;;;;;;3.69;100.00;93487.53;4970846;28;20042;-80
2021/11/26 16:34:57;;;;;;;25.15;19.65;;;;;;;3.57;100.00;93497.31;4969578;28;20038;-79
2021/11/26 16:37:24;;;;;;;24.05;19.50;;;;;;;3.57;100.00;93499.88;4986060;28;20031;-79
2021/11/26 16:39:50;;;;;;;23.58;18.15;;;;;;;3.58;100.00;93495.56;4985556;28;20077;-79
2021/11/26 16:42:18;;;;;;;22.17;18.15;;;;;;;3.54;100.00;93492.53;4968366;28;20027;-80
2021/11/26 16:44:44;;;;;;;26.70;21.67;;;;;;;3.49;100.00;93492.22;4971562;28;20407;-80
2021/11/26 16:47:10;;;;;;;27.02;21.17;;;;;;;3.46;100.00;93495.13;4988642;28;20114;-80
2021/11/26 16:49:36;;;;;;;27.23;21.13;;;;;;;3.39;100.00;93501.03;4988129;28;20027;-81